West Rushville, OH (43163)

6:54 PM EST on March 04, 2015 (GMT -0500)
Fairfield County Weather | Change Station
CLOSE
Current Station
Personal Weather Station
Location: Lancaster, OH
Elevation: 958 ft
Nearby Weather Stations
Active Advisory: Winter Storm Warning

Elev 958 ft 39.75 °N, 82.57 °W | Updated 16 seconds ago

Rain
Rain
31.5 °F
Feels Like 27 °F
N
5.0
Wind Variable Wind from North
Gusts 7.0 mph

Today
High -- | Low -- °F
--% Chance of Precip.
Yesterday
High -- | Low -- °F
Precip. -- in
6:58 AM 6:24 PM
Waxing Gibbous, 99% visible
Pressure 30.04 in
Visibility 1.5 miles
Clouds Few 700 ft
Overcast 2000 ft
Windchill 27 °F
Dew Point 29 °F
Humidity 89%
Rainfall 0.49 in
Snow Depth Not available.
UV 0 out of 12
Pollen .60 out of 12
Air Quality Not available.
Flu Activity Not available.
SPECI KLHQ 042334Z AUTO 33007KT 1 1/2SM -SN BR FEW007 OVC020 00/M01 A3004 RMK AO2 P0001 T00001011

More Conditions Fewer Conditions

Pressure 30.04 in
Visibility 1.5 miles
Clouds Few 700 ft
Overcast 2000 ft
Windchill 27 °F
Dew Point 29 °F
Humidity 89%
Rainfall 0.49 in
Snow Depth Not available.
UV 0 out of 12
Pollen .60 out of 12
Air Quality Not available.
Flu Activity Not available.
SPECI KLHQ 042334Z AUTO 33007KT 1 1/2SM -SN BR FEW007 OVC020 00/M01 A3004 RMK AO2 P0001 T00001011

More Conditions Fewer Conditions

10-Day Weather Forecast

Almanac

Astronomy

Mar. 04, 2015 Rise Set
Actual Time
Civil Twilight
Nautical Twilight
Astronomical Twilight
Moon
Length of Visible Light
Length of Day
Tomorrow will be .
, % of the Moon is Illuminated

Today's Extremes

State Highs State Lows

Community

WunderPhotos

Upload Photos

1,802,605 photos uploaded!

WunderBlogs® & News

Nearby

Air Quality

  Air Quality AQ Index Pollutant
Not available.

Snow Depth

Station Depth Elevation

Earthquake Activity

City Distance Mag. Time & Date
Minimum magnitude displayed is 2.5.

Coastal Water Temperatures

Place Temperature

Nearby Weather Stations

Winter Storm Warning
Statement as of 4:01 PM EST on March 04, 2015

... Winter Storm Warning remains in effect until 1 PM EST
Thursday...

* hazard types... heavy snow.

* Accumulations... snow accumulation of 2 to 4 inches.

* Timing... heaviest snow accumulations will be from after sunset
through the early morning hours.

* Impacts... hazardous travel conditions are expected due to
reduced visibilities and snow accumulations.

Precautionary/preparedness actions...

Remember... a Winter Storm Warning means severe winter weather
conditions are imminent or highly likely. Stay tuned to NOAA
Weather Radio or your favorite source of information for the
latest updates. Additional details can also be found at
www.Weather.Gov/iln as well as on our facebook and twitter pages.